Thunderstorms From: 25-05-2018 15:00 Until: 26-05-2018 15:00 warning for: Thunderstorms Level: Yellow info button

Although rather usual in this region, locally or potentially dangerous phenomena are expected. (such as local winds, summer thunderstorms, rising streams or high waves) Be aware and pay attention to the latest weather updates, especially if you carry out activities exposed to weather or close to a stream or shoreline. 


Meteo18 Weather Cam more information Meteo18 Weather Cam


warning for Thunderstorms more information blitzortung!


Rain radar more information rain snow radar


Visit our other weather sites:

Template documentation
and downloads

And another site



Weather Underground History page Text

Daily Summary for January 31, 2016 Units:  Metric    English   Both
« Previous Day
Next Day »
Daily Weekly Monthly Yearly Custom
  High: Low: Average:
Temperature: -17.8 °C -13.8 °C -12.2 °C
Dew Point: -17.8 °C -14.1 °C -12.4 °C
Humidity: Humidity % 95 % 96 %
Wind Speed: 0 km/h 0 km/h 5.8 km/h
Wind Gust: 0 km/h - -
Wind:- - SW
Pressure: 0 hPa 34371.3 hPa -
Precipitation: 393.7 mm    
Historical Graphs
 
 
Tabular Data for January 31, 2016
Time Temperature Dew Point Pressure Wind Wind Speed Wind Gust Humidity Rainfall Rate (Hourly)
-17.8 °C -17.8 °C 0 hPa Calm     Humidity % 0 mm
00:01 -13.2 °C -13.5 °C 34476.3 hPa Calm   7.7 km/h 96 % 25.4 mm
00:07 -13.2 °C -13.5 °C 34476.3 hPa Calm   5.1 km/h 96 % 25.4 mm
00:17 -13.2 °C -13.6 °C 34476.3 hPa SW 2.6 km/h 2.6 km/h 96 % 25.4 mm
00:22 -13.2 °C -13.6 °C 34476.3 hPa Calm   2.6 km/h 96 % 25.4 mm
00:32 -13.2 °C -13.6 °C 34476.3 hPa Calm   5.1 km/h 96 % 20.32 mm
00:37 -13.2 °C -13.6 °C 34476.3 hPa Calm   2.6 km/h 96 % 20.32 mm
00:47 -13.2 °C -13.6 °C 34476.3 hPa Calm   5.1 km/h 96 % 20.32 mm
00:52 -13.3 °C -13.6 °C 34476.3 hPa Calm   5.1 km/h 96 % 20.32 mm
00:57 -13.3 °C -13.6 °C 34486.4 hPa Calm   5.1 km/h 96 % 25.4 mm
01:09 -13.3 °C -13.6 °C 34476.3 hPa Calm   7.7 km/h 96 % 33.02 mm
01:17 -13.3 °C -13.7 °C 34476.3 hPa SSW 2.6 km/h 5.1 km/h 96 % 38.1 mm
01:22 -13.4 °C -13.7 °C 34462.7 hPa Calm   7.7 km/h 96 % 38.1 mm
01:34 -13.4 °C -13.8 °C 34462.7 hPa Calm   5.1 km/h 96 % 45.72 mm
01:42 -13.4 °C -13.8 °C 34462.7 hPa Calm   2.6 km/h 96 % 45.72 mm
01:52 -13.5 °C -13.8 °C 34462.7 hPa Calm   2.6 km/h 96 % 45.72 mm
01:57 -13.5 °C -13.8 °C 34462.7 hPa Calm   2.6 km/h 96 % 45.72 mm
02:02 -13.5 °C -13.8 °C 34462.7 hPa Calm   5.1 km/h 96 % 45.72 mm
02:12 -13.6 °C -13.9 °C 34452.6 hPa Calm   5.1 km/h 96 % 45.72 mm
02:17 -13.6 °C -13.9 °C 34452.6 hPa Calm   2.6 km/h 96 % 38.1 mm
02:22 -13.6 °C -13.9 °C 34452.6 hPa Calm   2.6 km/h 96 % 38.1 mm
02:32 -13.7 °C -14 °C 34452.6 hPa Calm     96 % 38.1 mm
02:37 -13.7 °C -14 °C 34452.6 hPa Calm     96 % 38.1 mm
02:47 -13.7 °C -14 °C 34442.4 hPa Calm     96 % 45.72 mm
02:52 -13.7 °C -14.1 °C 34452.6 hPa Calm     96 % 45.72 mm
02:57 -13.7 °C -14.1 °C 34452.6 hPa Calm     96 % 45.72 mm
03:07 -13.7 °C -13.9 °C 34462.7 hPa Calm     97 % 45.72 mm
03:12 -13.7 °C -13.9 °C 34452.6 hPa Calm     97 % 45.72 mm
03:22 -13.7 °C -13.9 °C 34442.4 hPa Calm     97 % 38.1 mm
03:32 -13.8 °C -14 °C 34442.4 hPa Calm     97 % 38.1 mm
03:42 -13.7 °C -13.9 °C 34442.4 hPa Calm     97 % 33.02 mm
03:47 -13.7 °C -13.9 °C 34442.4 hPa Calm     97 % 33.02 mm
03:52 -13.7 °C -13.9 °C 34442.4 hPa Calm     97 % 33.02 mm
04:00 -13.8 °C -14 °C 34442.4 hPa Calm     97 % 33.02 mm
04:07 -13.8 °C -14 °C 34442.4 hPa Calm     97 % 33.02 mm
04:17 -13.8 °C -14 °C 34442.4 hPa Calm     97 % 33.02 mm
04:22 -13.7 °C -13.9 °C 34428.8 hPa Calm     97 % 33.02 mm
04:32 -13.8 °C -14 °C 34442.4 hPa Calm     97 % 33.02 mm
04:37 -13.8 °C -14 °C 34442.4 hPa Calm     97 % 25.4 mm
04:47 -13.8 °C -14 °C 34428.8 hPa Calm     97 % 25.4 mm
04:57 -13.8 °C -14 °C 34418.7 hPa Calm     97 % 25.4 mm
05:02 -13.8 °C -14 °C 34418.7 hPa Calm     97 % 25.4 mm
05:07 -13.8 °C -14 °C 34418.7 hPa Calm     97 % 25.4 mm
05:12 -13.8 °C -14 °C 34418.7 hPa Calm     97 % 25.4 mm
05:22 -13.8 °C -13.9 °C 34418.7 hPa Calm     98 % 25.4 mm
05:42 -13.8 °C -13.9 °C 34428.8 hPa Calm     98 % 25.4 mm
05:52 -13.8 °C -13.9 °C 34418.7 hPa Calm     98 % 25.4 mm
05:57 -13.8 °C -13.9 °C 34418.7 hPa Calm     98 % 25.4 mm
06:02 -13.8 °C -13.9 °C 34418.7 hPa Calm   2.6 km/h 98 % 25.4 mm
06:12 -13.8 °C -13.9 °C 34418.7 hPa Calm   2.6 km/h 98 % 33.02 mm
06:17 -13.8 °C -13.9 °C 34405.1 hPa Calm   2.6 km/h 98 % 33.02 mm
06:27 -13.8 °C -13.9 °C 34418.7 hPa Calm   2.6 km/h 98 % 25.4 mm
06:32 -13.8 °C -13.9 °C 34405.1 hPa Calm   2.6 km/h 98 % 25.4 mm
06:37 -13.8 °C -13.9 °C 34418.7 hPa Calm   2.6 km/h 98 % 33.02 mm
06:42 -13.8 °C -13.9 °C 34405.1 hPa Calm   2.6 km/h 98 % 33.02 mm
06:47 -13.8 °C -13.9 °C 34405.1 hPa WSW 2.6 km/h 2.6 km/h 98 % 33.02 mm
06:52 -13.8 °C -13.9 °C 34405.1 hPa WSW 2.6 km/h 2.6 km/h 98 % 25.4 mm
07:02 -13.8 °C -13.9 °C 34395 hPa Calm   2.6 km/h 98 % 25.4 mm
07:07 -13.8 °C -13.9 °C 34395 hPa Calm   2.6 km/h 98 % 33.02 mm
07:12 -13.8 °C -13.9 °C 34405.1 hPa Calm   2.6 km/h 98 % 33.02 mm
07:17 -13.8 °C -13.9 °C 34395 hPa Calm   2.6 km/h 98 % 25.4 mm
07:27 -13.8 °C -13.9 °C 34395 hPa Calm   2.6 km/h 98 % 25.4 mm
07:37 -13.8 °C -13.9 °C 34395 hPa Calm   2.6 km/h 98 % 33.02 mm
07:42 -13.8 °C -13.9 °C 34395 hPa Calm   2.6 km/h 98 % 33.02 mm
07:47 -13.8 °C -13.9 °C 34395 hPa Calm     98 % 25.4 mm
07:57 -13.8 °C -13.9 °C 34395 hPa Calm     98 % 25.4 mm
08:02 -13.8 °C -13.9 °C 34395 hPa Calm     98 % 25.4 mm
08:07 -13.7 °C -13.9 °C 34395 hPa Calm     98 % 25.4 mm
08:17 -13.7 °C -13.9 °C 34395 hPa Calm     98 % 20.32 mm
08:22 -13.7 °C -13.9 °C 34395 hPa Calm     98 % 20.32 mm
08:32 -13.7 °C -13.9 °C 34395 hPa Calm     98 % 20.32 mm
08:42 -13.7 °C -13.8 °C 34395 hPa Calm   2.6 km/h 98 % 12.7 mm
08:52 -13.6 °C -13.8 °C 34395 hPa Calm   2.6 km/h 98 % 12.7 mm
08:57 -13.6 °C -13.7 °C 34395 hPa Calm   2.6 km/h 98 % 20.32 mm
09:07 -13.1 °C -13.2 °C 34384.8 hPa WSW 2.6 km/h 7.7 km/h 99 % 12.7 mm
09:17 -12.8 °C -12.8 °C 34371.3 hPa SW 5.1 km/h 18.2 km/h 99 % 20.32 mm
09:27 -12.3 °C -12.4 °C 34371.3 hPa SW 7.7 km/h 23.3 km/h 99 % 20.32 mm
09:32 -12.1 °C -12.2 °C 34384.8 hPa WSW 12.9 km/h 23.3 km/h 99 % 20.32 mm
09:37 -12.1 °C -12.2 °C 34384.8 hPa SW 10.3 km/h 28.5 km/h 99 % 12.7 mm
09:42 -12 °C -12.1 °C 34384.8 hPa WSW 5.1 km/h 28.5 km/h 99 % 12.7 mm
09:52 -11.8 °C -11.9 °C 34384.8 hPa WSW 10.3 km/h 25.9 km/h 99 % 20.32 mm
09:57 -11.8 °C -11.9 °C 34384.8 hPa SW 12.9 km/h 28.5 km/h 99 % 12.7 mm
10:07 -11.7 °C -11.8 °C 34384.8 hPa SW 12.9 km/h 28.5 km/h 99 % 12.7 mm
10:12 -11.7 °C -11.8 °C 34395 hPa WSW 5.1 km/h 28.5 km/h 99 % 12.7 mm
10:22 -11.6 °C -11.7 °C 34395 hPa WSW 12.9 km/h 20.8 km/h 99 % 12.7 mm
10:27 -11.6 °C -11.7 °C 34395 hPa SW 15.6 km/h 20.8 km/h 99 % 12.7 mm
10:32 -11.6 °C -11.7 °C 34384.8 hPa SW 15.6 km/h 20.8 km/h 98 % 12.7 mm
10:42 -11.5 °C -11.7 °C 34384.8 hPa SW 15.6 km/h 25.9 km/h 98 % 12.7 mm
10:47 -11.4 °C -11.6 °C 34384.8 hPa SW 15.6 km/h 25.9 km/h 98 % 12.7 mm
10:52 -11.4 °C -11.6 °C 34395 hPa SSW 7.7 km/h 23.3 km/h 98 % 12.7 mm
11:02 -11.4 °C -11.7 °C 34405.1 hPa SSE 10.3 km/h 31.1 km/h 97 % 20.32 mm
11:07 -11.4 °C -11.7 °C 34405.1 hPa SW 5.1 km/h 28.5 km/h 97 % 20.32 mm
11:17 -11.4 °C -11.7 °C 34405.1 hPa WSW 23.3 km/h 23.3 km/h 97 % 25.4 mm
11:22 -11.3 °C -11.6 °C 34405.1 hPa SW 12.9 km/h 23.3 km/h 97 % 25.4 mm
11:29 -11.3 °C -11.6 °C 34418.7 hPa WSW 7.7 km/h 28.5 km/h 97 % 25.4 mm
11:37 -11.3 °C -11.6 °C 34418.7 hPa SSW 12.9 km/h 28.5 km/h 97 % 20.32 mm
11:47 -11.3 °C -11.6 °C 34418.7 hPa SW 12.9 km/h 23.3 km/h 97 % 25.4 mm
11:57 -11.3 °C -11.6 °C 34418.7 hPa SSE 7.7 km/h 31.1 km/h 97 % 20.32 mm
12:02 -11.2 °C -11.5 °C 34418.7 hPa WSW 12.9 km/h 31.1 km/h 97 % 20.32 mm
12:07 -11.2 °C -11.6 °C 34418.7 hPa SW 10.3 km/h 23.3 km/h 96 % 12.7 mm
12:19 -11.2 °C -11.5 °C 34418.7 hPa SSW 5.1 km/h 23.3 km/h 96 % 12.7 mm
12:27 -11.1 °C -11.4 °C 34418.7 hPa ESE 5.1 km/h 25.9 km/h 96 % 12.7 mm
12:32 -11.1 °C -11.4 °C 34428.8 hPa SSW 10.3 km/h 25.9 km/h 96 % 12.7 mm
12:42 -11.1 °C -11.4 °C 34428.8 hPa WSW 25.9 km/h 25.9 km/h 96 % 12.7 mm
12:52 -11 °C -11.3 °C 34428.8 hPa SSE 12.9 km/h 28.5 km/h 96 % 7.62 mm
13:02 -10.9 °C -11.4 °C 34418.7 hPa WSW 15.6 km/h 28.5 km/h 95 % 12.7 mm
13:07 -10.9 °C -11.4 °C 34418.7 hPa WSW 7.7 km/h 25.9 km/h 95 % 7.62 mm
13:22 -10.9 °C -11.3 °C 34428.8 hPa SW 10.3 km/h 18.2 km/h 96 % 7.62 mm
13:32 -10.9 °C -11.3 °C 34442.4 hPa SW 12.9 km/h 18.2 km/h 96 % 7.62 mm
13:37 -10.9 °C -11.3 °C 34428.8 hPa SW 10.3 km/h 25.9 km/h 96 % 7.62 mm
13:47 -11 °C -11.4 °C 34442.4 hPa SW 5.1 km/h 25.9 km/h 95 % 7.62 mm
13:52 -10.9 °C -11.3 °C 34442.4 hPa SW 7.7 km/h 20.8 km/h 96 % 7.62 mm
13:57 -10.9 °C -11.3 °C 34442.4 hPa WSW 18.2 km/h 20.8 km/h 96 % 0 mm
14:02 -10.9 °C -11.3 °C 34442.4 hPa WSW 10.3 km/h 20.8 km/h 96 % 0 mm
14:12 -10.9 °C -11.2 °C 34428.8 hPa WSW 7.7 km/h 25.9 km/h 96 % 7.62 mm
14:22 -10.9 °C -11.2 °C 34442.4 hPa SSW 10.3 km/h 20.8 km/h 96 % 7.62 mm
14:27 -10.8 °C -11.2 °C 34442.4 hPa WSW 12.9 km/h 23.3 km/h 96 % 12.7 mm
14:37 -10.8 °C -11.1 °C 34442.4 hPa Calm   23.3 km/h 96 % 12.7 mm
14:42 -10.7 °C -11.1 °C 34442.4 hPa SSE 5.1 km/h 20.8 km/h 96 % 12.7 mm
14:47 -10.7 °C -11.1 °C 34442.4 hPa West 5.1 km/h 20.8 km/h 96 % 12.7 mm
14:57 -10.8 °C -11.1 °C 34442.4 hPa SW 7.7 km/h 20.8 km/h 96 % 12.7 mm
15:02 -10.8 °C -11.2 °C 34442.4 hPa WNW 5.1 km/h 20.8 km/h 95 % 12.7 mm
15:07 -10.8 °C -11.2 °C 34442.4 hPa SSW 10.3 km/h 23.3 km/h 95 % 7.62 mm
15:17 -10.7 °C -11.2 °C 34452.6 hPa South 12.9 km/h 23.3 km/h 95 % 7.62 mm
15:37 -10.7 °C -11.2 °C 34442.4 hPa WSW 5.1 km/h 25.9 km/h 95 % 0 mm
15:47 -10.7 °C -11.1 °C 34452.6 hPa SW 5.1 km/h 20.8 km/h 95 % 0 mm
15:52 -10.7 °C -11.1 °C 34462.7 hPa SW 10.3 km/h 23.3 km/h 95 % 0 mm
15:57 -10.7 °C -11.2 °C 34462.7 hPa WSW 7.7 km/h 23.3 km/h 95 % 0 mm
16:07 -10.7 °C -11.2 °C 34462.7 hPa WSW 7.7 km/h 28.5 km/h 95 % 0 mm
16:12 -10.8 °C -11.1 °C 34462.7 hPa SW 12.9 km/h 28.5 km/h 96 % 0 mm
16:27 -10.8 °C -11.2 °C 34476.3 hPa WSW 2.6 km/h 20.8 km/h 96 % 7.62 mm
16:37 -10.8 °C -11.2 °C 34476.3 hPa WSW 20.8 km/h 23.3 km/h 96 % 7.62 mm
16:42 -10.9 °C -11.2 °C 34486.4 hPa WSW 10.3 km/h 23.3 km/h 96 % 7.62 mm
16:47 -10.9 °C -11.2 °C 34486.4 hPa SW 10.3 km/h 25.9 km/h 96 % 7.62 mm
16:52 -10.9 °C -11.2 °C 34486.4 hPa Calm   25.9 km/h 96 % 7.62 mm
17:02 -10.9 °C -11.2 °C 34496.6 hPa WSW 7.7 km/h 28.5 km/h 96 % 7.62 mm
17:12 -10.9 °C -11.3 °C 34496.6 hPa SW 10.3 km/h 28.5 km/h 96 % 7.62 mm
17:22 -10.9 °C -11.3 °C 34496.6 hPa SW 7.7 km/h 25.9 km/h 96 % 7.62 mm
17:32 -11 °C -11.3 °C 34510.1 hPa Calm   18.2 km/h 96 % 0 mm
17:37 -11 °C -11.3 °C 34510.1 hPa WSW 10.3 km/h 20.8 km/h 96 % 0 mm
17:47 -11 °C -11.3 °C 34520.3 hPa SSE 12.9 km/h 20.8 km/h 96 % 0 mm
17:52 -11 °C -11.3 °C 34520.3 hPa WNW 5.1 km/h 20.8 km/h 97 % 0 mm
17:57 -11 °C -11.3 °C 34533.8 hPa South 5.1 km/h 20.8 km/h 97 % 0 mm
18:07 -11 °C -11.3 °C 34533.8 hPa WSW 10.3 km/h 23.3 km/h 96 % 0 mm
18:12 -11 °C -11.3 °C 34533.8 hPa SW 12.9 km/h 23.3 km/h 96 % 0 mm
18:17 -11 °C -11.3 °C 34544 hPa WSW 7.7 km/h 23.3 km/h 97 % 7.62 mm
18:27 -11 °C -11.3 °C 34544 hPa WSW 7.7 km/h 28.5 km/h 97 % 7.62 mm
18:32 -11 °C -11.3 °C 34544 hPa SSW 10.3 km/h 28.5 km/h 97 % 7.62 mm
18:42 -11 °C -11.3 °C 34554.1 hPa WSW 5.1 km/h 25.9 km/h 97 % 7.62 mm
18:47 -11 °C -11.3 °C 34567.7 hPa SSW 5.1 km/h 25.9 km/h 97 % 7.62 mm
18:57 -11 °C -11.3 °C 34567.7 hPa SSW 5.1 km/h 20.8 km/h 97 % 7.62 mm
19:07 -11 °C -11.3 °C 34567.7 hPa SW 15.6 km/h 25.9 km/h 97 % 7.62 mm
19:17 -11 °C -11.3 °C 34577.8 hPa Calm   18.2 km/h 97 % 7.62 mm
19:22 -11 °C -11.3 °C 34591.4 hPa WSW 2.6 km/h 20.8 km/h 97 % 7.62 mm
19:32 -11.1 °C -11.3 °C 34591.4 hPa South 2.6 km/h 18.2 km/h 97 % 12.7 mm
19:42 -11.1 °C -11.3 °C 34591.4 hPa SE 7.7 km/h 20.8 km/h 97 % 12.7 mm
19:52 -11.1 °C -11.3 °C 34591.4 hPa WSW 2.6 km/h 23.3 km/h 97 % 12.7 mm
20:02 -11.1 °C -11.3 °C 34601.5 hPa Calm   25.9 km/h 97 % 12.7 mm
20:07 -11.1 °C -11.3 °C 34601.5 hPa SSW 12.9 km/h 23.3 km/h 97 % 7.62 mm
20:17 -11.1 °C -11.3 °C 34611.7 hPa SW 5.1 km/h 25.9 km/h 97 % 12.7 mm
20:22 -11.1 °C -11.4 °C 34611.7 hPa West 2.6 km/h 25.9 km/h 96 % 12.7 mm
20:32 -11.1 °C -11.4 °C 34611.7 hPa WSW 7.7 km/h 20.8 km/h 96 % 7.62 mm
20:37 -11.1 °C -11.4 °C 34601.5 hPa SW 2.6 km/h 20.8 km/h 96 % 7.62 mm
20:42 -11.1 °C -11.4 °C 34601.5 hPa SW 10.3 km/h 20.8 km/h 96 % 7.62 mm
20:52 -11.1 °C -11.4 °C 34601.5 hPa South 12.9 km/h 20.8 km/h 97 % 7.62 mm
21:02 -11.1 °C -11.4 °C 34611.7 hPa WSW 10.3 km/h 33.6 km/h 97 % 7.62 mm
21:12 -11.2 °C -11.4 °C 34611.7 hPa WSW 12.9 km/h 33.6 km/h 97 % 7.62 mm
21:22 -11.2 °C -11.4 °C 34611.7 hPa WSW 10.3 km/h 28.5 km/h 97 % 0 mm
21:27 -11.2 °C -11.4 °C 34611.7 hPa SSW 12.9 km/h 36.2 km/h 97 % 0 mm
21:37 -11.2 °C -11.4 °C 34611.7 hPa SW 12.9 km/h 33.6 km/h 97 % 0 mm
21:42 -11.2 °C -11.4 °C 34625.2 hPa SW 5.1 km/h 33.6 km/h 97 % 0 mm
21:47 -11.2 °C -11.4 °C 34625.2 hPa SW 7.7 km/h 33.6 km/h 97 % 0 mm
21:57 -11.2 °C -11.4 °C 34635.4 hPa SSE 7.7 km/h 23.3 km/h 97 % 7.62 mm
22:07 -11.2 °C -11.4 °C 34635.4 hPa SW 15.6 km/h 25.9 km/h 97 % 7.62 mm
22:12 -11.2 °C -11.4 °C 34635.4 hPa SW 10.3 km/h 25.9 km/h 97 % 7.62 mm
22:17 -11.2 °C -11.4 °C 34635.4 hPa SW 15.6 km/h 23.3 km/h 97 % 7.62 mm
22:22 -11.2 °C -11.4 °C 34645.6 hPa SW 10.3 km/h 28.5 km/h 97 % 7.62 mm
22:32 -11.2 °C -11.4 °C 34645.6 hPa SW 15.6 km/h 28.5 km/h 97 % 7.62 mm
22:42 -11.2 °C -11.4 °C 34659.1 hPa SW 7.7 km/h 23.3 km/h 97 % 7.62 mm
22:52 -11.2 °C -11.4 °C 34669.3 hPa SSE 15.6 km/h 28.5 km/h 97 % 7.62 mm
23:02 -11.2 °C -11.5 °C 34669.3 hPa WSW 15.6 km/h 28.5 km/h 97 % 7.62 mm
23:12 -11.2 °C -11.5 °C 34669.3 hPa SE 7.7 km/h 28.5 km/h 97 % 7.62 mm
23:27 -11.2 °C -11.5 °C 34669.3 hPa SW 10.3 km/h 23.3 km/h 97 % 7.62 mm
23:32 -11.2 °C -11.5 °C 34682.8 hPa SW 12.9 km/h 20.8 km/h 97 % 7.62 mm
23:42 -11.2 °C -11.5 °C 34682.8 hPa SW 7.7 km/h 20.8 km/h 97 % 7.62 mm
23:52 -11.2 °C -11.5 °C 34682.8 hPa SW 15.6 km/h 23.3 km/h 97 % 7.62 mm
23:57 -11.2 °C -11.5 °C 34682.8 hPa WSW 7.7 km/h 23.3 km/h 97 % 7.62 mm
Meteo18
Compliments of Weather Underground - 4 mb

Script developed by  Jim McMurry - jmcmurry@mwt.net Adapted for the template by  Wim van der Kuil - Leuven-Template.eu

You find our weather info also at:

European Weather Network

Weather Underground

Equipment we use:

Weather-station
Davis Vue

Weather-program
Meteobridge

Weather-server
Raspberry PI 2 B+

Provider
1 and 1

Davis Vue

Meteobridge

Raspberry PI 2 B+

1 and 1